createdAt,value
2023-04-09T00:02:06.628Z,99056.97
2023-04-09T00:04:34.212Z,99064.91
2023-04-09T00:07:01.514Z,99061.00
2023-04-09T00:09:28.728Z,99064.88
2023-04-09T00:11:57.035Z,99060.16
2023-04-09T00:14:24.774Z,99065.63
2023-04-09T00:16:51.973Z,99066.09
2023-04-09T00:19:19.275Z,99072.78
2023-04-09T00:21:47.147Z,99065.47
2023-04-09T00:24:14.893Z,99070.63
2023-04-09T00:26:42.037Z,99071.34
2023-04-09T00:29:09.204Z,99068.50
2023-04-09T00:31:36.635Z,99070.72
2023-04-09T00:34:03.893Z,99066.38
2023-04-09T00:36:31.277Z,99067.09
2023-04-09T00:38:58.958Z,99064.50
2023-04-09T00:41:26.306Z,99060.38
2023-04-09T00:43:56.355Z,99061.47
2023-04-09T00:46:23.579Z,99064.06
2023-04-09T00:48:51.467Z,99064.72
2023-04-09T00:51:19.149Z,99054.97
2023-04-09T00:53:47.839Z,99057.88
2023-04-09T00:56:18.659Z,99071.69
2023-04-09T00:58:45.997Z,99074.09
2023-04-09T01:01:13.303Z,99067.22
2023-04-09T01:03:41.196Z,99063.97
2023-04-09T01:06:17.877Z,99068.63
2023-04-09T01:09:07.599Z,99070.59
2023-04-09T01:11:46.613Z,99066.69
2023-04-09T01:14:30.030Z,99057.00
2023-04-09T01:17:11.617Z,99063.56
2023-04-09T01:20:04.033Z,99073.53
2023-04-09T01:22:42.615Z,99067.63
2023-04-09T01:25:39.400Z,99067.00
2023-04-09T01:28:18.755Z,99061.84
2023-04-09T01:30:50.714Z,99065.25
2023-04-09T01:33:19.880Z,99063.09
2023-04-09T01:35:49.669Z,99063.16
2023-04-09T01:38:19.654Z,99056.13
2023-04-09T01:40:48.751Z,99058.53
2023-04-09T01:43:17.118Z,99059.94
2023-04-09T01:45:46.787Z,99057.63
2023-04-09T01:48:15.017Z,99061.38
2023-04-09T01:50:43.285Z,99059.72
2023-04-09T01:53:11.470Z,99059.72
2023-04-09T01:55:38.742Z,99063.50
2023-04-09T01:58:05.974Z,99071.38
2023-04-09T02:00:39.929Z,99071.38
2023-04-09T02:03:18.151Z,99072.91
2023-04-09T02:05:53.263Z,99075.97
2023-04-09T02:08:21.887Z,99068.72
2023-04-09T02:10:55.379Z,99073.41
2023-04-09T02:13:24.651Z,99073.66
2023-04-09T02:15:56.736Z,99071.44
2023-04-09T02:18:31.273Z,99068.25
2023-04-09T02:20:59.295Z,99067.81
2023-04-09T02:23:27.526Z,99070.50
2023-04-09T02:25:54.895Z,99068.75
2023-04-09T02:28:22.087Z,99070.38
2023-04-09T02:30:52.231Z,99077.91
2023-04-09T02:33:19.464Z,99076.94
2023-04-09T02:35:46.839Z,99081.31
2023-04-09T02:38:15.988Z,99083.75
2023-04-09T02:40:43.395Z,99080.00
2023-04-09T02:43:10.969Z,99081.41
2023-04-09T02:45:38.269Z,99080.25
2023-04-09T02:48:05.856Z,99085.84
2023-04-09T02:50:35.613Z,99081.13
2023-04-09T02:53:03.471Z,99080.91
2023-04-09T02:55:30.762Z,99083.50
2023-04-09T02:57:59.208Z,99087.72
2023-04-09T03:00:26.462Z,99085.38
2023-04-09T03:02:55.094Z,99090.66
2023-04-09T03:05:22.424Z,99088.88
2023-04-09T03:07:49.793Z,99090.78
2023-04-09T03:10:17.059Z,99089.38
2023-04-09T03:12:44.759Z,99083.63
2023-04-09T03:15:12.021Z,99079.66
2023-04-09T03:17:39.995Z,99081.53
2023-04-09T03:20:07.943Z,99083.41
2023-04-09T03:22:38.596Z,99081.88
2023-04-09T03:25:15.910Z,99086.34
2023-04-09T03:27:43.167Z,99086.47
2023-04-09T03:30:12.576Z,99087.28
2023-04-09T03:32:44.580Z,99088.91
2023-04-09T03:35:13.585Z,99087.75
2023-04-09T03:37:43.058Z,99084.81
2023-04-09T03:40:16.630Z,99097.09
2023-04-09T03:42:44.392Z,99099.09
2023-04-09T03:45:14.353Z,99096.28
2023-04-09T03:47:45.360Z,99097.22
2023-04-09T03:50:13.256Z,99090.06
2023-04-09T03:52:50.922Z,99096.59
2023-04-09T03:55:19.107Z,99093.19
2023-04-09T03:57:46.776Z,99096.59
2023-04-09T04:00:17.819Z,99086.28
2023-04-09T04:02:52.018Z,99088.16
2023-04-09T04:05:34.167Z,99092.50
2023-04-09T04:08:06.600Z,99089.00
2023-04-09T04:10:34.709Z,99087.94
2023-04-09T04:13:02.521Z,99085.91
2023-04-09T04:15:42.661Z,99092.72
2023-04-09T04:18:12.029Z,99088.16
2023-04-09T04:20:44.214Z,99093.06
2023-04-09T04:23:14.349Z,99091.88
2023-04-09T04:25:50.433Z,99093.03
2023-04-09T04:28:24.583Z,99092.53
2023-04-09T04:30:51.950Z,99096.72
2023-04-09T04:33:19.694Z,99094.13
2023-04-09T04:35:52.255Z,99099.88
2023-04-09T04:38:42.208Z,99096.91
2023-04-09T04:41:17.022Z,99096.47
2023-04-09T04:43:51.487Z,99090.13
2023-04-09T04:46:24.205Z,99086.75
2023-04-09T04:48:51.751Z,99096.78
2023-04-09T04:51:19.752Z,99101.19
2023-04-09T04:53:59.002Z,99093.88
2023-04-09T04:56:26.767Z,99095.75
2023-04-09T04:59:02.072Z,99093.44
2023-04-09T05:01:35.697Z,99086.41
2023-04-09T05:04:07.264Z,99090.13
2023-04-09T05:06:37.174Z,99094.25
2023-04-09T05:09:08.895Z,99097.91
2023-04-09T05:11:43.791Z,99100.09
2023-04-09T05:14:16.342Z,99095.97
2023-04-09T05:16:43.845Z,99096.25
2023-04-09T05:19:11.161Z,99098.94
2023-04-09T05:21:39.045Z,99103.00
2023-04-09T05:24:06.834Z,99124.16
2023-04-09T05:26:34.929Z,99114.94
2023-04-09T05:29:03.094Z,99120.47
2023-04-09T05:31:30.372Z,99125.34
2023-04-09T05:34:06.118Z,99128.47
2023-04-09T05:36:38.450Z,99130.63
2023-04-09T05:39:06.171Z,99125.50
2023-04-09T05:41:33.662Z,99132.75
2023-04-09T05:44:16.044Z,99137.47
2023-04-09T05:46:44.326Z,99141.44
2023-04-09T05:49:14.818Z,99130.50
2023-04-09T05:51:44.561Z,99135.94
2023-04-09T05:54:12.226Z,99138.81
2023-04-09T05:56:39.505Z,99148.63
2023-04-09T05:59:07.333Z,99145.13
2023-04-09T06:01:34.849Z,99151.81
2023-04-09T06:04:04.650Z,99155.03
2023-04-09T06:06:32.635Z,99159.38
2023-04-09T06:09:00.642Z,99160.34
2023-04-09T06:11:27.929Z,99162.09
2023-04-09T06:13:55.162Z,99152.25
2023-04-09T06:16:22.378Z,99156.50
2023-04-09T06:18:54.528Z,99164.13
2023-04-09T06:21:21.730Z,99166.56
2023-04-09T06:23:48.949Z,99159.88
2023-04-09T06:26:16.418Z,99158.72
2023-04-09T06:28:43.902Z,99171.84
2023-04-09T06:31:11.333Z,99172.75
2023-04-09T06:33:38.534Z,99163.91
2023-04-09T06:36:06.110Z,99171.22
2023-04-09T06:38:33.273Z,99167.00
2023-04-09T06:41:00.702Z,99168.94
2023-04-09T06:43:27.925Z,99170.81
2023-04-09T06:45:55.232Z,99173.44
2023-04-09T06:48:22.439Z,99166.75
2023-04-09T06:50:49.699Z,99168.84
2023-04-09T06:53:17.812Z,99163.81
2023-04-09T06:55:45.025Z,99158.31
2023-04-09T06:58:12.254Z,99168.38
2023-04-09T07:00:39.742Z,99164.75
2023-04-09T07:03:09.206Z,99162.88
2023-04-09T07:05:36.649Z,99169.75
2023-04-09T07:08:04.246Z,99188.81
2023-04-09T07:10:31.610Z,99166.56
2023-04-09T07:12:58.822Z,99174.56
2023-04-09T07:15:26.041Z,99180.00
2023-04-09T07:17:53.493Z,99184.66
2023-04-09T07:20:21.025Z,99190.50
2023-04-09T07:22:48.240Z,99186.72
2023-04-09T07:25:16.336Z,99181.94
2023-04-09T07:27:44.562Z,99178.38
2023-04-09T07:30:11.766Z,99172.31
2023-04-09T07:32:39.022Z,99170.09
2023-04-09T07:35:08.049Z,99182.78
2023-04-09T07:37:35.680Z,99195.41
2023-04-09T07:40:06.212Z,99190.06
2023-04-09T07:42:33.458Z,99183.72
2023-04-09T07:45:00.804Z,99190.56
2023-04-09T07:47:28.649Z,99197.78
2023-04-09T07:49:55.821Z,99196.97
2023-04-09T07:52:23.015Z,99191.06
2023-04-09T07:54:50.440Z,99195.09
2023-04-09T07:57:17.796Z,99195.00
2023-04-09T07:59:45.110Z,99184.53
2023-04-09T08:02:15.009Z,99189.88
2023-04-09T08:04:42.880Z,99178.91
2023-04-09T08:07:10.148Z,99178.75
2023-04-09T08:09:37.359Z,99162.13
2023-04-09T08:12:04.722Z,99147.72
2023-04-09T08:14:31.997Z,99151.69
2023-04-09T08:17:00.582Z,99155.41
2023-04-09T08:19:27.732Z,99147.91
2023-04-09T08:21:54.876Z,99132.91
2023-04-09T08:24:22.441Z,99132.53
2023-04-09T08:26:49.640Z,99132.22
2023-04-09T08:29:16.899Z,99145.50
2023-04-09T08:31:44.387Z,99144.81
2023-04-09T08:34:13.049Z,99145.16
2023-04-09T08:36:40.286Z,99134.69
2023-04-09T08:39:07.567Z,99133.91
2023-04-09T08:41:38.278Z,99141.41
2023-04-09T08:44:05.674Z,99126.88
2023-04-09T08:46:35.824Z,99133.81
2023-04-09T08:49:03.312Z,99134.03
2023-04-09T08:51:31.561Z,99143.88
2023-04-09T08:54:03.277Z,99140.50
2023-04-09T08:56:32.158Z,99147.38
2023-04-09T08:58:59.590Z,99134.28
2023-04-09T09:01:29.357Z,99138.72
2023-04-09T09:03:56.967Z,99134.94
2023-04-09T09:06:27.286Z,99152.59
2023-04-09T09:09:01.926Z,99146.88
2023-04-09T09:11:30.456Z,99155.09
2023-04-09T09:14:02.423Z,99158.69
2023-04-09T09:16:30.482Z,99167.53
2023-04-09T09:18:57.917Z,99167.97
2023-04-09T09:21:26.322Z,99164.03
2023-04-09T09:23:53.525Z,99161.69
2023-04-09T09:26:28.807Z,99157.28
2023-04-09T09:28:59.892Z,99151.50
2023-04-09T09:31:27.288Z,99150.13
2023-04-09T09:33:54.874Z,99157.91
2023-04-09T09:36:33.235Z,99155.91
2023-04-09T09:39:09.889Z,99162.25
2023-04-09T09:41:38.016Z,99153.41
2023-04-09T09:44:07.323Z,99162.66
2023-04-09T09:46:39.510Z,99168.00
2023-04-09T09:49:07.497Z,99167.66
2023-04-09T09:51:39.927Z,99177.22
2023-04-09T09:54:12.993Z,99166.41
2023-04-09T09:56:43.462Z,99171.91
2023-04-09T09:59:21.955Z,99172.16
2023-04-09T10:01:54.771Z,99166.09
2023-04-09T10:04:28.678Z,99178.06
2023-04-09T10:06:57.550Z,99171.44
2023-04-09T10:09:28.100Z,99174.13
2023-04-09T10:11:56.990Z,99179.53
2023-04-09T10:14:26.124Z,99177.84
2023-04-09T10:16:53.482Z,99172.31
2023-04-09T10:19:22.335Z,99181.41
2023-04-09T10:21:59.319Z,99173.75
2023-04-09T10:24:26.640Z,99168.72
2023-04-09T10:26:55.119Z,99178.06
2023-04-09T10:29:28.558Z,99177.38
2023-04-09T10:32:08.074Z,99166.66
2023-04-09T10:34:45.132Z,99162.94
2023-04-09T10:37:30.194Z,99173.13
2023-04-09T10:39:58.007Z,99168.69
2023-04-09T10:42:37.229Z,99168.81
2023-04-09T10:45:06.352Z,99167.97
2023-04-09T10:47:36.105Z,99164.63
2023-04-09T10:50:17.135Z,99167.31
2023-04-09T10:52:44.735Z,99171.72
2023-04-09T10:55:40.906Z,99165.69
2023-04-09T10:58:12.789Z,99158.44
2023-04-09T11:00:46.485Z,99161.16
2023-04-09T11:03:29.039Z,99167.63
2023-04-09T11:06:07.129Z,99154.06
2023-04-09T11:08:35.452Z,99155.03
2023-04-09T11:11:03.604Z,99145.38
2023-04-09T11:13:32.030Z,99150.94
2023-04-09T11:16:01.335Z,99143.16
2023-04-09T11:18:30.371Z,99144.00
2023-04-09T11:20:59.373Z,99128.19
2023-04-09T11:23:27.188Z,99134.66
2023-04-09T11:25:55.300Z,99132.03
2023-04-09T11:28:23.734Z,99134.13
2023-04-09T11:30:52.045Z,99134.63
2023-04-09T11:33:20.384Z,99132.69
2023-04-09T11:35:48.834Z,99131.66
2023-04-09T11:38:16.345Z,99135.06
2023-04-09T11:40:51.563Z,99137.84
2023-04-09T11:43:20.954Z,99148.47
2023-04-09T11:45:49.223Z,99150.78
2023-04-09T11:48:18.473Z,99137.19
2023-04-09T11:50:47.483Z,99126.81
2023-04-09T11:53:19.500Z,99132.00
2023-04-09T11:55:52.197Z,99119.75
2023-04-09T11:58:23.489Z,99124.94
2023-04-09T12:00:59.104Z,99121.75
2023-04-09T12:03:29.931Z,99119.25
2023-04-09T12:06:00.860Z,99126.69
2023-04-09T12:08:28.267Z,99128.22
2023-04-09T12:10:55.599Z,99127.00
2023-04-09T12:13:32.562Z,99130.19
2023-04-09T12:16:02.349Z,99133.19
2023-04-09T12:18:29.675Z,99144.00
2023-04-09T12:20:57.061Z,99130.28
2023-04-09T12:23:24.334Z,99129.75
2023-04-09T12:25:51.550Z,99125.94
2023-04-09T12:28:19.003Z,99130.28
2023-04-09T12:30:47.080Z,99133.84
2023-04-09T12:33:14.379Z,99133.63
2023-04-09T12:35:41.754Z,99133.72
2023-04-09T12:38:09.056Z,99124.41
2023-04-09T12:40:37.037Z,99127.16
2023-04-09T12:43:04.950Z,99116.03
2023-04-09T12:45:32.803Z,99120.44
2023-04-09T12:48:00.106Z,99121.91
2023-04-09T12:50:28.386Z,99117.91
2023-04-09T12:52:56.042Z,99110.59
2023-04-09T12:55:23.307Z,99099.28
2023-04-09T12:57:50.893Z,99097.06
2023-04-09T13:00:18.418Z,99097.41
2023-04-09T13:02:45.769Z,99105.44
2023-04-09T13:05:13.191Z,99096.81
2023-04-09T13:07:42.924Z,99093.31
2023-04-09T13:10:10.806Z,99089.16
2023-04-09T13:12:38.302Z,99091.66
2023-04-09T13:15:06.072Z,99091.41
2023-04-09T13:17:33.354Z,99085.34
2023-04-09T13:20:01.388Z,99082.13
2023-04-09T13:22:28.665Z,99078.03
2023-04-09T13:24:55.896Z,99081.53
2023-04-09T13:27:23.131Z,99082.84
2023-04-09T13:29:50.328Z,99072.16
2023-04-09T13:32:18.420Z,99070.44
2023-04-09T13:34:46.120Z,99076.31
2023-04-09T13:37:13.336Z,99066.19
2023-04-09T13:39:40.536Z,99068.94
2023-04-09T13:42:13.262Z,99064.13
2023-04-09T13:44:44.644Z,99060.41
2023-04-09T13:47:13.466Z,99059.97
2023-04-09T13:49:41.422Z,99058.56
2023-04-09T13:52:09.398Z,99063.00
2023-04-09T13:54:37.466Z,99058.38
2023-04-09T13:57:04.716Z,99052.50
2023-04-09T13:59:32.216Z,99049.31
2023-04-09T14:01:59.934Z,99047.09
2023-04-09T14:04:27.660Z,99045.50
2023-04-09T14:06:54.963Z,99052.06
2023-04-09T14:09:22.163Z,99051.66
2023-04-09T14:11:49.708Z,99050.25
2023-04-09T14:14:17.922Z,99052.97
2023-04-09T14:16:45.119Z,99053.78
2023-04-09T14:19:12.412Z,99047.47
2023-04-09T14:21:40.781Z,99039.66
2023-04-09T14:24:08.065Z,99040.94
2023-04-09T14:26:35.390Z,99034.63
2023-04-09T14:29:02.898Z,99041.41
2023-04-09T14:31:30.438Z,99039.03
2023-04-09T14:33:57.631Z,99037.81
2023-04-09T14:36:24.858Z,99032.78
2023-04-09T14:38:53.382Z,99031.63
2023-04-09T14:41:22.042Z,99029.81
2023-04-09T14:43:49.247Z,99029.19
2023-04-09T14:46:16.483Z,99031.81
2023-04-09T14:48:43.723Z,99034.34
2023-04-09T14:51:11.360Z,99030.56
2023-04-09T14:53:38.765Z,99032.88
2023-04-09T14:56:06.660Z,99029.97
2023-04-09T14:58:34.063Z,99036.13
2023-04-09T15:01:01.425Z,99035.88
2023-04-09T15:03:28.866Z,99034.31
2023-04-09T15:05:56.773Z,99032.72
2023-04-09T15:08:24.060Z,99037.78
2023-04-09T15:10:51.552Z,99041.56
2023-04-09T15:13:19.199Z,99033.47
2023-04-09T15:15:46.413Z,99033.00
2023-04-09T15:18:13.625Z,99038.22
2023-04-09T15:20:43.380Z,99036.75
2023-04-09T15:23:11.090Z,99045.25
2023-04-09T15:25:39.009Z,99029.78
2023-04-09T15:28:06.849Z,99035.31
2023-04-09T15:30:35.494Z,99031.03
2023-04-09T15:33:02.954Z,99035.44
2023-04-09T15:35:30.515Z,99036.94
2023-04-09T15:37:58.024Z,99032.00
2023-04-09T15:40:25.444Z,99038.06
2023-04-09T15:42:52.696Z,99044.63
2023-04-09T15:45:19.917Z,99043.81
2023-04-09T15:47:47.490Z,99037.75
2023-04-09T15:50:14.904Z,99045.63
2023-04-09T15:52:42.189Z,99044.53
2023-04-09T15:55:09.810Z,99050.09
2023-04-09T15:57:38.548Z,99045.19
2023-04-09T16:00:10.747Z,99044.22
2023-04-09T16:02:41.309Z,99046.03
2023-04-09T16:05:08.684Z,99052.69
2023-04-09T16:07:35.902Z,99043.09
2023-04-09T16:10:04.663Z,99046.31
2023-04-09T16:12:31.926Z,99042.91
2023-04-09T16:14:59.271Z,99053.16
2023-04-09T16:17:26.556Z,99057.56
2023-04-09T16:19:53.853Z,99053.16
2023-04-09T16:22:21.201Z,99053.31
2023-04-09T16:24:48.585Z,99058.69
2023-04-09T16:27:18.548Z,99056.91
2023-04-09T16:29:46.305Z,99056.56
2023-04-09T16:32:13.548Z,99061.94
2023-04-09T16:34:40.968Z,99056.38
2023-04-09T16:37:08.199Z,99058.28
2023-04-09T16:39:35.943Z,99054.03
2023-04-09T16:42:03.176Z,99058.28
2023-04-09T16:44:30.688Z,99050.72
2023-04-09T16:46:58.016Z,99049.66
2023-04-09T16:49:25.262Z,99056.44
2023-04-09T16:51:53.274Z,99056.59
2023-04-09T16:54:20.965Z,99056.91
2023-04-09T16:56:48.837Z,99055.59
2023-04-09T16:59:18.300Z,99054.44
2023-04-09T17:01:45.585Z,99052.81
2023-04-09T17:04:13.024Z,99051.63
2023-04-09T17:06:40.673Z,99057.47
2023-04-09T17:09:08.063Z,99061.53
2023-04-09T17:11:35.555Z,99052.91
2023-04-09T17:14:02.903Z,99065.56
2023-04-09T17:16:30.690Z,99063.72
2023-04-09T17:18:57.921Z,99063.88
2023-04-09T17:21:26.878Z,99066.50
2023-04-09T17:23:54.125Z,99068.28
2023-04-09T17:26:21.359Z,99069.09
2023-04-09T17:28:48.665Z,99069.88
2023-04-09T17:31:16.251Z,99069.56
2023-04-09T17:33:48.096Z,99068.94
2023-04-09T17:36:19.008Z,99075.91
2023-04-09T17:38:47.807Z,99085.00
2023-04-09T17:41:15.715Z,99088.06
2023-04-09T17:43:42.947Z,99087.69
2023-04-09T17:46:10.300Z,99089.00
2023-04-09T17:48:37.709Z,99095.59
2023-04-09T17:51:05.734Z,99097.25
2023-04-09T17:53:33.219Z,99092.34
2023-04-09T17:56:03.069Z,99096.06
2023-04-09T17:58:30.404Z,99103.38
2023-04-09T18:00:58.742Z,99103.16
2023-04-09T18:03:26.290Z,99104.13
2023-04-09T18:05:54.279Z,99108.38
2023-04-09T18:08:21.651Z,99104.78
2023-04-09T18:11:04.968Z,99119.06
2023-04-09T18:13:38.484Z,99116.47
2023-04-09T18:16:09.638Z,99121.31
2023-04-09T18:18:36.874Z,99130.91
2023-04-09T18:21:06.138Z,99123.91
2023-04-09T18:23:33.608Z,99135.59
2023-04-09T18:26:03.936Z,99129.06
2023-04-09T18:28:31.171Z,99138.81
2023-04-09T18:30:58.923Z,99130.31
2023-04-09T18:33:27.212Z,99129.94
2023-04-09T18:35:54.403Z,99136.28
2023-04-09T18:38:21.644Z,99132.88
2023-04-09T18:40:48.858Z,99132.50
2023-04-09T18:43:16.047Z,99141.25
2023-04-09T18:45:43.283Z,99137.16
2023-04-09T18:48:10.557Z,99141.00
2023-04-09T18:50:37.802Z,99142.16
2023-04-09T18:53:06.042Z,99145.72
2023-04-09T18:55:37.625Z,99139.69
2023-04-09T18:58:15.118Z,99144.91
2023-04-09T19:00:43.472Z,99149.28
2023-04-09T19:03:11.179Z,99144.09
2023-04-09T19:05:38.823Z,99143.41
2023-04-09T19:08:06.925Z,99149.41
2023-04-09T19:10:34.322Z,99147.63
2023-04-09T19:13:02.452Z,99138.34
2023-04-09T19:15:29.770Z,99144.38
2023-04-09T19:17:57.472Z,99147.13
2023-04-09T19:20:24.652Z,99145.78
2023-04-09T19:22:56.662Z,99150.31
2023-04-09T19:25:24.216Z,99152.91
2023-04-09T19:27:53.674Z,99149.78
2023-04-09T19:30:21.298Z,99152.66
2023-04-09T19:32:48.662Z,99153.63
2023-04-09T19:35:16.170Z,99146.81
2023-04-09T19:37:43.549Z,99146.81
2023-04-09T19:40:11.238Z,99140.94
2023-04-09T19:42:38.516Z,99148.06
2023-04-09T19:45:06.217Z,99150.00
2023-04-09T19:47:34.816Z,99148.38
2023-04-09T19:50:02.255Z,99152.34
2023-04-09T19:52:29.545Z,99147.31
2023-04-09T19:54:57.108Z,99145.97
2023-04-09T19:57:26.450Z,99145.16
2023-04-09T19:59:54.142Z,99147.59
2023-04-09T20:02:21.581Z,99145.97
2023-04-09T20:04:48.996Z,99150.19
2023-04-09T20:07:16.253Z,99144.34
2023-04-09T20:09:43.687Z,99152.78
2023-04-09T20:12:11.150Z,99148.41
2023-04-09T20:14:39.353Z,99148.25
2023-04-09T20:17:09.749Z,99147.59
2023-04-09T20:19:37.908Z,99147.59
2023-04-09T20:22:05.423Z,99141.56
2023-04-09T20:24:34.018Z,99143.38
2023-04-09T20:27:01.549Z,99140.06
2023-04-09T20:29:28.833Z,99138.56
2023-04-09T20:31:56.085Z,99142.41
2023-04-09T20:34:26.735Z,99143.53
2023-04-09T20:36:57.785Z,99135.84
2023-04-09T20:39:26.919Z,99140.38
2023-04-09T20:41:55.095Z,99141.22
2023-04-09T20:44:22.781Z,99143.66
2023-04-09T20:46:50.846Z,99144.50
2023-04-09T20:49:18.224Z,99142.72
2023-04-09T20:51:46.374Z,99149.69
2023-04-09T20:54:13.654Z,99149.81
2023-04-09T20:56:40.955Z,99149.16
2023-04-09T20:59:08.222Z,99145.59
2023-04-09T21:01:35.911Z,99150.78
2023-04-09T21:04:03.812Z,99148.34
2023-04-09T21:06:31.103Z,99140.38
2023-04-09T21:08:59.793Z,99148.34
2023-04-09T21:11:27.268Z,99144.94
2023-04-09T21:13:55.626Z,99141.50
2023-04-09T21:16:23.185Z,99146.97
2023-04-09T21:18:50.660Z,99145.91
2023-04-09T21:21:18.438Z,99143.41
2023-04-09T21:23:45.659Z,99144.38
2023-04-09T21:26:14.163Z,99138.53
2023-04-09T21:28:41.340Z,99146.31
2023-04-09T21:31:11.207Z,99142.09
2023-04-09T21:33:39.327Z,99151.63
2023-04-09T21:36:07.934Z,99146.81
2023-04-09T21:38:35.673Z,99147.66
2023-04-09T21:41:02.932Z,99154.19
2023-04-09T21:43:30.386Z,99153.09
2023-04-09T21:45:57.736Z,99151.03
2023-04-09T21:48:26.534Z,99158.00
2023-04-09T21:50:53.781Z,99151.19
2023-04-09T21:53:21.207Z,99149.97
2023-04-09T21:55:48.396Z,99150.13
2023-04-09T21:58:16.001Z,99157.53
2023-04-09T22:00:43.199Z,99155.22
2023-04-09T22:03:11.215Z,99161.53
2023-04-09T22:05:38.660Z,99149.34
2023-04-09T22:08:06.204Z,99156.59
2023-04-09T22:10:33.507Z,99151.28
2023-04-09T22:13:01.327Z,99148.81
2023-04-09T22:15:29.091Z,99149.22
2023-04-09T22:17:56.355Z,99149.63
2023-04-09T22:20:26.320Z,99150.59
2023-04-09T22:22:54.771Z,99152.69
2023-04-09T22:25:22.288Z,99157.88
2023-04-09T22:27:53.382Z,99148.56
2023-04-09T22:30:21.902Z,99156.22
2023-04-09T22:32:49.988Z,99154.19
2023-04-09T22:35:18.351Z,99158.56
2023-04-09T22:37:47.040Z,99158.72
2023-04-09T22:40:16.130Z,99161.31
2023-04-09T22:42:46.021Z,99161.47
2023-04-09T22:45:13.616Z,99156.28
2023-04-09T22:47:40.973Z,99163.25
2023-04-09T22:50:08.725Z,99144.91
2023-04-09T22:52:35.945Z,99147.34
2023-04-09T22:55:03.268Z,99159.00
2023-04-09T22:57:30.633Z,99158.19
2023-04-09T22:59:57.842Z,99152.97
2023-04-09T23:02:25.173Z,99158.31
2023-04-09T23:04:52.556Z,99150.53
2023-04-09T23:07:19.778Z,99158.31
2023-04-09T23:09:47.192Z,99152.47
2023-04-09T23:12:14.473Z,99150.00
2023-04-09T23:14:41.757Z,99153.28
2023-04-09T23:17:08.962Z,99148.19
2023-04-09T23:19:36.171Z,99150.81
2023-04-09T23:22:03.461Z,99148.50
2023-04-09T23:24:30.872Z,99151.38
2023-04-09T23:26:58.281Z,99153.31
2023-04-09T23:29:25.476Z,99142.38
2023-04-09T23:31:52.858Z,99150.31
2023-04-09T23:34:20.221Z,99142.94
2023-04-09T23:36:47.450Z,99142.94
2023-04-09T23:39:14.645Z,99144.72
2023-04-09T23:41:41.928Z,99145.97
2023-04-09T23:44:09.187Z,99142.69
2023-04-09T23:46:36.648Z,99143.66
2023-04-09T23:49:03.925Z,99152.13
2023-04-09T23:51:31.631Z,99140.75
2023-04-09T23:53:58.816Z,99139.13
2023-04-09T23:56:26.029Z,99140.19
2023-04-09T23:58:53.215Z,99139.94
